Aviation Digital Data Service (ADDS)

Output produced by TAFs form (1458 UTC 30 August 2016)
found at http://www.aviationweather.gov/adds/tafs/
 
KSBY 301120Z 3012/3112 VRB04KT P6SM SKC 
     FM301500 09005KT P6SM FEW040 
     FM310500 VRB03KT 4SM BR FEW080